Latest Coastal Weather Observations for Strahan

IDT60701

Issued at 12:03 am EST Friday 1 July 2016 (issued every 10 minutes, with the page automatically refreshed every 10 minutes)

About coastal observations | Map of coastal stations | Coastal observations for TAS | Marine services | Other Formats
Station Details ID: 097072 Name: STRAHAN AERODROME Lat: -42.16 Lon: 145.29 Height: 21.0 m
Data from the previous 72 hours. | See also: Recent months at Strahan
Date/Time
EST
Temp
°C
Wind Pressure Rain since
9am
mm
Weather Cloud Vis
km
Sea
Height
m
Swell
Dir  Spd
kts
Gust
kts
hPa Trend Height
m
Period
s
Dir
01/12:00am 6.8 NE 4 6 1007.2 - 18.6 - Partly cloudy 10 - - - -
 
Date/Time
EST
Temp
°C
Wind Pressure Rain since
9am
mm
Weather Cloud Vis
km
Sea
Height
m
Swell
Dir  Spd
kts
Gust
kts
hPa Trend Height
m
Period
s
Dir
30/11:30pm 6.8 NNE 5 5 1007.0 - 18.6 - Partly cloudy 10 - - - -
30/11:14pm 7.2 NE 1 4 1006.9 - 18.6 - Partly cloudy 10 - - - -
30/11:00pm 6.7 CALM 0 0 1006.8 - 18.6 - Partly cloudy 3 - - - -
30/10:54pm 6.6 CALM 0 0 1006.7 - 18.6 - Partly cloudy 5 - - - -
30/10:30pm 6.7 CALM 0 0 1006.3 - 18.6 - Partly cloudy 10 - - - -
30/10:00pm 7.1 CALM 0 4 1005.8 - 18.6 - Partly cloudy 10 - - - -
30/09:30pm 7.4 SSW 3 6 1005.4 - 18.6 - Partly cloudy 10 - - - -
30/09:00pm 7.6 ENE 1 3 1004.9 - 18.6 - Cloudy 10 - - - -
30/08:30pm 8.0 ENE 5 7 1004.4 - 18.6 - Partly cloudy 10 - - - -
30/08:00pm 8.0 E 5 6 1004.4 - 18.6 - Partly cloudy 10 - - - -
30/07:30pm 8.1 ENE 3 4 1004.1 - 18.6 - Partly cloudy 10 - - - -
30/07:00pm 8.3 NNW 6 9 1003.7 - 18.6 - Partly cloudy 10 - - - -
30/06:30pm 8.5 N 11 15 1003.1 - 18.4 - Partly cloudy 7 - - - -
30/06:00pm 8.8 N 5 7 1003.1 - 16.8 - Cloudy 10 - - - -
30/05:30pm 8.9 N 7 11 1002.0 - 16.8 - Partly cloudy 10 - - - -
30/05:05pm 9.2 NNE 7 11 1001.7 - 16.8 - Partly cloudy 10 - - - -
30/05:00pm 9.2 NNE 6 10 1001.6 - 16.8 - Partly cloudy 10 - - - -
30/04:30pm 9.5 NNW 6 7 1001.5 - 15.4 - Partly cloudy 4 - - - -
30/04:28pm 9.5 NNW 6 7 1001.5 - 15.2 - Partly cloudy 5 - - - -
30/04:00pm 9.5 N 9 11 1001.1 - 14.6 - Partly cloudy 10 - - - -
30/03:52pm 9.5 N 8 11 1000.9 - 14.6 - Partly cloudy 10 - - - -
30/03:30pm 9.6 N 9 15 1000.8 - 13.6 - Partly cloudy 5 - - - -
30/03:23pm 9.6 N 8 12 1000.8 - 13.0 - Partly cloudy 5 - - - -
30/03:17pm 9.6 N 9 12 1000.7 - 12.6 - Partly cloudy 9 - - - -
30/03:00pm 9.7 N 10 14 1000.4 - 12.0 Rain Cloudy 4 - - - -
30/02:57pm 9.7 N 11 16 1000.4 - 11.8 - Partly cloudy 5 - - - -
30/02:30pm 10.0 N 11 15 1000.2 - 9.8 - Partly cloudy 6 - - - -
30/02:00pm 10.0 N 9 13 1000.2 - 6.6 - Partly cloudy 5 - - - -
30/01:51pm 10.0 N 10 16 1000.3 - 5.4 - Partly cloudy 5 - - - -
30/01:37pm 10.0 N 10 15 1000.2 - 4.4 - Partly cloudy 7 - - - -
30/01:30pm 9.8 NNE 8 12 1000.2 - 4.2 - Partly cloudy 6 - - - -
30/01:21pm 9.9 NNE 8 11 1000.2 - 3.6 - Partly cloudy 5 - - - -
30/01:00pm 10.0 NNE 8 15 1000.3 - 2.4 - Partly cloudy 7 - - - -
30/12:30pm 10.2 N 10 16 1000.7 - 1.6 - Partly cloudy 9 - - - -
30/12:00pm 10.2 N 9 15 1000.9 - 1.2 - Cloudy 10 - - - -
30/11:30am 9.9 N 9 16 1001.5 - 1.2 - Cloudy 10 - - - -
30/11:00am 9.8 N 10 16 1002.0 - 1.2 - Partly cloudy 10 - - - -
30/10:30am 10.0 N 14 22 1002.5 - 0.4 - Partly cloudy 10 - - - -
30/10:23am 10.0 N 15 25 1002.6 - 0.4 - Partly cloudy 10 - - - -
30/10:00am 10.7 N 17 25 1002.8 - 0.0 - Partly cloudy 10 - - - -
30/09:44am 11.1 N 18 28 1002.9 - 0.0 - Partly cloudy 10 - - - -
30/09:30am 11.2 N 17 25 1003.0 - 0.0 - Partly cloudy 10 - - - -
30/09:00am 11.3 N 19 30 1003.1 - 0.4 - Cloudy 10 - - - -
30/08:30am 11.2 N 17 32 1003.2 - 0.4 - Partly cloudy 10 - - - -
30/08:08am 11.2 N 16 26 1003.4 - 0.4 - Partly cloudy 10 - - - -
30/08:00am 11.4 N 19 27 1003.5 - 0.4 - Partly cloudy 10 - - - -
30/07:30am 11.3 N 16 27 1003.9 - 0.4 - Partly cloudy 10 - - - -
30/07:00am 11.2 N 17 27 1004.2 - 0.4 - Partly cloudy 10 - - - -
30/06:42am 11.2 N 18 30 1004.4 - 0.4 - Partly cloudy 10 - - - -
30/06:30am 11.0 N 16 23 1004.6 - 0.4 - Cloudy 10 - - - -
30/06:00am 11.1 N 19 29 1004.9 - 0.4 - Cloudy 10 - - - -
30/05:42am 10.9 N 17 27 1005.2 - 0.4 - Partly cloudy 10 - - - -
30/05:30am 10.9 N 17 25 1005.4 - 0.4 - Partly cloudy 10 - - - -
30/05:01am 10.9 N 18 28 1005.9 - 0.4 - Partly cloudy 10 - - - -
30/05:00am 10.9 N 19 28 1005.9 - 0.4 - Partly cloudy 10 - - - -
30/04:36am 10.8 N 15 25 1006.4 - 0.4 - Partly cloudy 10 - - - -
30/04:30am 10.7 N 15 23 1006.5 - 0.4 - Partly cloudy 10 - - - -
30/04:00am 10.8 N 13 23 1006.9 - 0.4 - Cloudy 10 - - - -
30/03:30am 10.6 N 14 23 1007.3 - 0.4 - Cloudy 10 - - - -
30/03:00am 10.2 NNE 13 19 1008.2 - 0.4 - Cloudy 10 - - - -
30/02:30am 10.2 NNE 14 23 1008.8 - 0.4 - Partly cloudy 10 - - - -
30/02:00am 10.1 NNE 11 15 1009.6 - 0.4 - Partly cloudy 10 - - - -
30/01:30am 10.3 N 12 25 1010.0 - 0.4 - - 10 - - - -
30/01:00am 10.2 NNE 12 19 1010.5 - 0.4 - Partly cloudy 10 - - - -
30/12:31am 10.6 N 15 27 1011.1 - 0.4 - Cloudy 10 - - - -
30/12:30am 10.6 N 14 27 1011.1 - 0.4 - Cloudy 10 - - - -
30/12:23am 10.6 N 15 25 1011.4 - 0.4 - Cloudy 10 - - - -
30/12:00am 10.4 N 15 23 1012.0 - 0.4 Recent precip. Cloudy 10 - - - -
 
Date/Time
EST
Temp
°C
Wind Pressure Rain since
9am
mm
Weather Cloud Vis
km
Sea
Height
m
Swell
Dir  Spd
kts
Gust
kts
hPa Trend Height
m
Period
s
Dir
29/11:30pm 10.2 N 11 21 1012.5 - 0.4 - Partly cloudy 10 - - - -
29/11:00pm 10.6 N 9 13 1013.1 - 0.2 - Partly cloudy 10 - - - -
29/10:30pm 10.6 N 12 18 1013.4 - 0.2 - Partly cloudy 10 - - - -
29/10:00pm 10.7 N 10 19 1014.3 - 0.2 - Partly cloudy 10 - - - -
29/09:30pm 10.4 N 7 10 1014.6 - 0.2 - Partly cloudy 10 - - - -
29/09:00pm 10.9 N 9 14 1015.1 - 0.2 - Cloudy 10 - - - -
29/08:30pm 10.9 N 10 17 1015.4 - 0.2 - - 10 - - - -
29/08:00pm 11.1 N 11 15 1015.7 - 0.2 - Partly cloudy 10 - - - -
29/07:30pm 11.1 N 10 14 1015.9 - 0.2 - Partly cloudy 10 - - - -
29/07:00pm 11.5 N 11 18 1016.0 - 0.2 - Partly cloudy 10 - - - -
29/06:30pm 11.0 N 13 18 1016.2 - 0.2 - - 10 - - - -
29/06:00pm 11.1 N 11 20 1016.4 - 0.2 - Mostly clear 10 - - - -
29/05:30pm 11.3 N 12 19 1016.8 - 0.2 - Cloudy 10 - - - -
29/05:00pm 11.4 N 9 13 1017.1 - 0.2 - Partly cloudy 10 - - - -
29/04:30pm 11.7 N 11 19 1017.4 - 0.2 - Partly cloudy 10 - - - -
29/04:00pm 12.2 NW 13 20 1017.5 - 0.2 - Partly cloudy 9 - - - -
29/03:30pm 13.2 NNW 13 16 1017.8 - 0.0 - Partly cloudy 10 - - - -
29/03:00pm 13.9 NNW 13 19 1018.0 - 0.0 - Mostly clear 10 - - - -
29/02:30pm 14.7 NNW 13 17 1018.3 - 0.0 - - 10 - - - -
29/02:00pm 14.5 NNW 15 19 1018.7 - 0.0 - - 10 - - - -
29/01:30pm 14.7 NNW 13 18 1018.9 - 0.0 - - 10 - - - -
29/01:00pm 14.7 NNW 14 17 1019.4 - 0.0 - - 10 - - - -
29/12:30pm 14.5 NW 15 22 1019.8 - 0.0 - - 10 - - - -
29/12:00pm 13.9 NW 15 19 1020.2 - 0.0 - Mostly cloudy 10 - - - -
29/11:30am 13.4 NW 13 18 1020.5 - 0.0 - Partly cloudy 9 - - - -
29/11:00am 13.7 NW 15 19 1020.8 - 0.0 - Partly cloudy 10 - - - -
29/10:30am 13.3 NW 15 20 1020.8 - 0.0 - Partly cloudy 9 - - - -
29/10:00am 12.9 NW 15 19 1020.6 - 0.0 - Partly cloudy 9 - - - -
29/09:30am 12.8 NW 15 19 1020.6 - 0.0 - Partly cloudy 9 - - - -
29/09:00am 12.6 NW 15 20 1020.6 - 15.6 - Cloudy 8 - - - -
29/08:30am 12.6 NW 15 20 1020.4 - 15.6 - Partly cloudy 8 - - - -
29/08:00am 12.5 NW 14 19 1020.1 - 15.6 - Partly cloudy 8 - - - -
29/07:30am 12.4 WNW 15 21 1019.9 - 15.6 - Partly cloudy 7 - - - -
29/07:04am 12.2 WNW 13 20 1019.6 - 15.6 - Partly cloudy 8 - - - -
29/07:00am 11.9 W 10 16 1019.6 - 15.6 - Partly cloudy 8 - - - -
29/06:30am 11.2 WSW 11 16 1019.5 - 14.6 - Partly cloudy 6 - - - -
29/06:04am 11.3 WSW 11 18 1019.3 - 13.6 - Partly cloudy 2 - - - -
29/06:00am 11.2 WSW 12 18 1019.3 - 12.8 Rain Cloudy 2 - - - -
29/05:32am 11.8 W 14 24 1019.1 - 8.2 - Partly cloudy 2 - - - -
29/05:30am 12.0 W 13 22 1019.1 - 7.6 - Partly cloudy 2 - - - -
29/05:28am 12.1 W 13 19 1019.1 - 6.6 - Partly cloudy 3 - - - -
29/05:17am 12.5 WNW 14 21 1018.9 - 4.8 - Partly cloudy 4 - - - -
29/05:09am 12.5 WNW 15 22 1018.7 - 4.2 - Partly cloudy 5 - - - -
29/05:00am 12.4 NW 16 24 1018.5 - 4.0 - Partly cloudy 6 - - - -
29/04:30am 12.7 NW 18 24 1018.2 - 3.6 - Partly cloudy 8 - - - -
29/04:27am 12.7 NW 18 24 1018.2 - 3.6 - Partly cloudy 8 - - - -
29/04:05am 12.5 NW 19 24 1018.3 - 3.6 - Partly cloudy 9 - - - -
29/04:03am 12.5 NW 19 24 1018.3 - 3.6 - Partly cloudy 8 - - - -
29/04:00am 12.5 NW 19 24 1018.3 - 3.6 - Partly cloudy 9 - - - -
29/03:51am 12.5 NW 18 24 1018.4 - 3.6 - Partly cloudy 9 - - - -
29/03:31am 12.2 NW 19 29 1018.4 - 3.6 - Partly cloudy 9 - - - -
29/03:30am 12.2 NW 20 29 1018.4 - 3.6 - Partly cloudy 9 - - - -
29/03:14am 12.3 NW 19 31 1018.2 - 3.6 - Partly cloudy 6 - - - -
29/03:00am 12.3 NW 19 25 1018.3 - 3.6 - Cloudy 7 - - - -
29/02:30am 12.8 NW 18 24 1018.3 - 3.6 - Partly cloudy 9 - - - -
29/02:00am 12.8 NW 19 25 1018.5 - 3.6 - Partly cloudy 10 - - - -
29/01:30am 12.7 NW 19 25 1018.4 - 3.6 - Partly cloudy 10 - - - -
29/01:00am 12.7 NW 17 23 1018.5 - 3.6 - Partly cloudy 9 - - - -
29/12:30am 12.7 NW 19 26 1018.5 - 3.6 - Partly cloudy 10 - - - -
29/12:00am 12.6 NW 18 23 1018.6 - 3.6 - Cloudy 9 - - - -
 
Date/Time
EST
Temp
°C
Wind Pressure Rain since
9am
mm
Weather Cloud Vis
km
Sea
Height
m
Swell
Dir  Spd
kts
Gust
kts
hPa Trend Height
m
Period
s
Dir
28/11:30pm 12.7 NW 16 23 1018.7 - 3.6 - Partly cloudy 8 - - - -
28/11:00pm 12.6 NW 17 25 1018.6 - 3.6 - Partly cloudy 9 - - - -
28/10:30pm 12.6 NW 17 24 1018.7 - 3.6 - Partly cloudy 9 - - - -
28/10:00pm 12.7 NW 18 26 1018.6 - 3.6 - Partly cloudy 9 - - - -
28/09:30pm 12.7 NW 18 23 1018.5 - 3.6 - Partly cloudy 8 - - - -
28/09:00pm 12.7 NW 18 24 1018.3 - 3.6 - Cloudy 9 - - - -
28/08:30pm 12.9 NW 17 23 1018.2 - 3.6 - Partly cloudy 9 - - - -
28/08:00pm 12.6 NW 18 26 1018.1 - 3.6 - Partly cloudy 9 - - - -
28/07:30pm 12.9 NW 19 28 1017.9 - 3.6 - Partly cloudy 9 - - - -
28/07:26pm 12.8 NW 18 28 1017.9 - 3.6 - Partly cloudy 8 - - - -
28/07:00pm 12.8 NW 19 26 1017.7 - 3.6 - Partly cloudy 8 - - - -
28/06:30pm 12.8 NW 19 25 1017.5 - 3.6 - Partly cloudy 8 - - - -
28/06:00pm 12.7 NW 17 24 1017.2 - 3.6 - Cloudy 8 - - - -
28/05:30pm 12.6 NW 17 26 1017.1 - 3.6 - Partly cloudy 8 - - - -
28/05:00pm 12.6 NW 17 26 1016.9 - 3.6 - Partly cloudy 6 - - - -
28/04:52pm 12.5 NW 17 26 1016.8 - 3.4 - Partly cloudy 7 - - - -
28/04:30pm 12.8 NW 18 24 1016.8 - 2.0 - Partly cloudy 5 - - - -
28/04:00pm 12.8 NW 17 23 1016.6 - 1.4 - Partly cloudy 10 - - - -
28/03:46pm 12.5 NW 16 22 1016.5 - 1.4 - Partly cloudy 7 - - - -
28/03:30pm 12.6 NW 15 21 1016.6 - 1.4 - Partly cloudy 5 - - - -
28/03:28pm 12.7 NW 16 22 1016.6 - 1.4 - Partly cloudy 5 - - - -
28/03:00pm 13.2 NW 15 20 1016.5 - 1.2 - Cloudy 10 - - - -
28/02:30pm 12.9 WNW 16 21 1016.4 - 1.2 - Partly cloudy 10 - - - -
28/02:00pm 12.4 NW 20 30 1016.3 - 1.2 - Partly cloudy 8 - - - -
28/01:49pm 12.7 NW 17 27 1016.2 - 1.2 - Partly cloudy 9 - - - -
28/01:45pm 12.8 NW 15 21 1016.2 - 1.2 - Partly cloudy 9 - - - -
28/01:30pm 12.5 NW 16 21 1016.3 - 1.2 - Partly cloudy 5 - - - -
28/01:23pm 12.5 NW 16 21 1016.3 - 0.6 - Partly cloudy 5 - - - -
28/01:00pm 12.8 NW 16 24 1016.5 - 0.6 - Partly cloudy 8 - - - -
28/12:50pm 12.5 NW 16 22 1016.5 - 0.6 - Partly cloudy 6 - - - -
28/12:30pm 12.6 WNW 16 23 1016.5 - 0.4 - Partly cloudy 5 - - - -
28/12:00pm 13.2 NW 17 23 1016.7 - 0.2 - Cloudy 9 - - - -
28/11:30am 13.4 NW 17 22 1016.7 - 0.2 - Partly cloudy 10 - - - -
28/11:00am 13.0 WNW 16 23 1016.8 - 0.2 - Partly cloudy 10 - - - -
28/10:30am 13.1 WNW 18 24 1016.6 - 0.2 - Partly cloudy 10 - - - -
28/10:00am 12.5 NW 17 23 1016.4 - 0.0 - Partly cloudy 10 - - - -
28/09:36am 12.8 WNW 15 25 1016.3 - 0.0 - Partly cloudy 9 - - - -
28/09:30am 12.7 WNW 15 20 1016.3 - 0.0 - Partly cloudy 10 - - - -
28/09:00am 12.4 WNW 20 27 1015.8 - 9.6 Recent precip. Mostly cloudy 10 - - - -
28/08:45am 12.2 WNW 17 23 1015.5 - 9.6 - Partly cloudy 9 - - - -
28/08:30am 12.2 NW 18 24 1015.3 - 9.6 - Partly cloudy 4 - - - -
28/08:26am 12.4 NW 18 24 1015.3 - 9.6 - Partly cloudy 5 - - - -
28/08:00am 12.6 NW 16 23 1015.3 - 9.0 - Partly cloudy 10 - - - -
28/07:30am 12.4 WNW 18 24 1015.1 - 9.0 - Partly cloudy 10 - - - -
28/07:19am 12.2 WNW 17 27 1015.1 - 9.0 - Partly cloudy 10 - - - -
28/07:00am 12.5 WNW 19 28 1014.8 - 9.0 - Partly cloudy 10 - - - -
28/06:30am 12.1 WNW 18 28 1014.5 - 9.0 - Partly cloudy 6 - - - -
28/06:27am 12.5 WNW 17 28 1014.4 - 9.0 - Partly cloudy 9 - - - -
28/06:00am 12.5 WNW 19 25 1014.1 - 9.0 - Cloudy 10 - - - -
28/05:30am 12.2 NW 17 23 1013.7 - 9.0 - Partly cloudy 9 - - - -
28/05:00am 12.0 NW 18 25 1013.7 - 9.0 - Partly cloudy 10 - - - -
28/04:30am 12.1 WNW 17 25 1013.5 - 9.0 - Partly cloudy 10 - - - -
28/04:10am 11.8 NW 17 29 1013.5 - 8.8 - Partly cloudy 6 - - - -
28/04:00am 12.0 NW 16 23 1013.6 - 8.8 - Partly cloudy 9 - - - -
28/03:46am 11.7 NW 18 27 1013.6 - 8.8 - Partly cloudy 9 - - - -
28/03:36am 11.9 NW 17 27 1013.6 - 8.6 - Partly cloudy 5 - - - -
28/03:30am 11.9 NW 16 21 1013.5 - 8.6 - Partly cloudy 5 - - - -
28/03:29am 11.9 NW 16 21 1013.5 - 8.6 - Partly cloudy 5 - - - -
28/03:00am 11.7 NW 16 23 1013.7 - 8.2 Recent precip. Cloudy 9 - - - -
28/02:30am 11.4 NW 16 22 1013.7 - 8.2 - Partly cloudy 8 - - - -
28/02:10am 11.3 NW 17 30 1013.6 - 8.0 - Partly cloudy 5 - - - -
28/02:08am 11.5 NW 16 30 1013.6 - 7.8 - Partly cloudy 7 - - - -
28/02:02am 11.5 NW 16 23 1013.5 - 7.8 - Partly cloudy 9 - - - -
28/02:00am 11.5 NW 17 24 1013.5 - 7.8 - Partly cloudy 9 - - - -
28/01:43am 11.4 NW 19 29 1013.4 - 7.6 - Partly cloudy 5 - - - -
28/01:42am 11.5 NW 19 29 1013.5 - 7.6 - Partly cloudy 6 - - - -
28/01:30am 11.6 NW 18 25 1013.3 - 7.4 - Partly cloudy 9 - - - -
28/01:28am 11.6 NW 18 25 1013.3 - 7.4 - Partly cloudy 9 - - - -
28/01:00am 11.4 NW 18 27 1013.3 - 7.0 - Partly cloudy 5 - - - -
28/12:59am 11.4 NW 17 27 1013.4 - 7.0 - Partly cloudy 5 - - - -
28/12:55am 11.5 NW 18 27 1013.3 - 6.8 - Partly cloudy 5 - - - -
28/12:50am 11.5 NW 17 24 1013.3 - 6.6 - Partly cloudy 6 - - - -
28/12:30am 11.3 NW 16 25 1013.4 - 6.0 - Partly cloudy 4 - - - -
28/12:27am 11.3 NW 17 25 1013.5 - 5.2 - Partly cloudy 5 - - - -
28/12:12am 11.3 NNW 15 25 1013.6 - 5.0 - Partly cloudy 9 - - - -

Other Formats:

Comma delimited format used in spreadsheet applications
http://www.bom.gov.au/fwo/IDT60701/IDT60701.94956.axf

JavaScript Object Notation format (JSON) in row-major order
http://www.bom.gov.au/fwo/IDT60701/IDT60701.94956.json